createdAt,value
2024-01-24T00:00:39.461Z,1.13
2024-01-24T00:03:06.187Z,1.35
2024-01-24T00:05:32.899Z,1.50
2024-01-24T00:07:59.610Z,1.25
2024-01-24T00:10:26.150Z,1.85
2024-01-24T00:12:52.824Z,2.60
2024-01-24T00:15:19.588Z,2.92
2024-01-24T00:17:46.269Z,1.37
2024-01-24T00:20:14.013Z,1.00
2024-01-24T00:22:40.634Z,2.00
2024-01-24T00:25:07.492Z,2.30
2024-01-24T00:27:34.021Z,1.58
2024-01-24T00:30:00.742Z,1.47
2024-01-24T00:32:27.441Z,2.47
2024-01-24T00:34:54.159Z,1.17
2024-01-24T00:37:20.751Z,1.58
2024-01-24T00:39:48.770Z,1.65
2024-01-24T00:42:15.592Z,1.83
2024-01-24T00:44:44.466Z,0.98
2024-01-24T00:47:11.007Z,1.27
2024-01-24T00:49:37.935Z,1.50
2024-01-24T00:52:05.060Z,1.30
2024-01-24T00:54:31.678Z,1.00
2024-01-24T00:56:58.207Z,1.15
2024-01-24T00:59:24.756Z,1.77
2024-01-24T01:01:51.332Z,1.23
2024-01-24T01:04:17.959Z,1.25
2024-01-24T01:06:44.745Z,1.13
2024-01-24T01:09:11.964Z,0.98
2024-01-24T01:11:39.751Z,0.90
2024-01-24T01:14:06.353Z,1.20
2024-01-24T01:16:32.997Z,0.82
2024-01-24T01:19:00.146Z,3.03
2024-01-24T01:21:26.807Z,0.80
2024-01-24T01:23:53.404Z,1.27
2024-01-24T01:26:20.156Z,0.70
2024-01-24T01:28:46.737Z,2.15
2024-01-24T01:31:13.302Z,0.83
2024-01-24T01:33:39.912Z,0.70
2024-01-24T01:36:17.234Z,1.00
2024-01-24T01:38:49.147Z,1.02
2024-01-24T01:41:15.684Z,0.70
2024-01-24T01:43:42.181Z,1.17
2024-01-24T01:46:12.534Z,1.00
2024-01-24T01:48:39.681Z,1.35
2024-01-24T01:51:07.263Z,1.25
2024-01-24T01:53:39.627Z,0.95
2024-01-24T01:56:10.256Z,1.30
2024-01-24T01:58:38.493Z,0.70
2024-01-24T02:01:07.231Z,1.27
2024-01-24T02:03:34.421Z,0.75
2024-01-24T02:06:04.482Z,0.95
2024-01-24T02:08:33.611Z,1.00
2024-01-24T02:11:00.359Z,1.02
2024-01-24T02:13:33.820Z,1.70
2024-01-24T02:16:00.993Z,1.20
2024-01-24T02:18:27.941Z,2.60
2024-01-24T02:20:55.127Z,3.33
2024-01-24T02:23:26.818Z,2.45
2024-01-24T02:25:54.305Z,1.85
2024-01-24T02:28:21.229Z,2.38
2024-01-24T02:30:47.848Z,1.70
2024-01-24T02:33:16.991Z,1.10
2024-01-24T02:35:43.827Z,2.08
2024-01-24T02:38:10.419Z,3.00
2024-01-24T02:40:37.013Z,3.83
2024-01-24T02:43:03.964Z,3.03
2024-01-24T02:45:30.565Z,1.33
2024-01-24T02:47:57.236Z,3.42
2024-01-24T02:50:23.965Z,3.97
2024-01-24T02:52:50.548Z,3.58
2024-01-24T02:55:17.220Z,4.05
2024-01-24T02:57:45.110Z,3.93
2024-01-24T03:00:14.335Z,2.72
2024-01-24T03:02:41.201Z,2.70
2024-01-24T03:05:10.527Z,2.58
2024-01-24T03:07:38.322Z,4.65
2024-01-24T03:10:05.852Z,5.47
2024-01-24T03:12:32.516Z,3.58
2024-01-24T03:14:59.281Z,3.28
2024-01-24T03:17:25.853Z,3.72
2024-01-24T03:19:52.580Z,3.72
2024-01-24T03:22:19.681Z,3.37
2024-01-24T03:24:46.271Z,5.32
2024-01-24T03:27:13.045Z,4.55
2024-01-24T03:29:42.138Z,5.20
2024-01-24T03:32:08.767Z,2.60
2024-01-24T03:34:35.741Z,3.60
2024-01-24T03:37:02.329Z,6.55
2024-01-24T03:39:29.481Z,4.70
2024-01-24T03:41:56.150Z,5.85
2024-01-24T03:44:22.699Z,3.28
2024-01-24T03:46:49.349Z,5.80
2024-01-24T03:49:16.493Z,5.38
2024-01-24T03:51:44.313Z,7.07
2024-01-24T03:54:10.925Z,4.88
2024-01-24T03:56:37.448Z,10.88
2024-01-24T03:59:04.001Z,2.70
2024-01-24T04:01:30.619Z,6.53
2024-01-24T04:03:57.309Z,9.75
2024-01-24T04:06:24.017Z,8.80
2024-01-24T04:08:50.674Z,6.22
2024-01-24T04:11:17.184Z,7.97
2024-01-24T04:13:44.176Z,10.05
2024-01-24T04:16:10.876Z,6.55
2024-01-24T04:18:38.627Z,9.75
2024-01-24T04:21:05.443Z,10.65
2024-01-24T04:23:31.984Z,8.03
2024-01-24T04:25:58.631Z,8.68
2024-01-24T04:28:25.215Z,11.10
2024-01-24T04:30:51.766Z,12.60
2024-01-24T04:33:18.450Z,10.40
2024-01-24T04:35:45.062Z,15.80
2024-01-24T04:38:11.611Z,14.55
2024-01-24T04:40:38.148Z,10.80
2024-01-24T04:43:05.084Z,9.95
2024-01-24T04:45:31.960Z,14.52
2024-01-24T04:47:58.995Z,15.90
2024-01-24T04:50:25.836Z,12.43
2024-01-24T04:52:52.623Z,13.40
2024-01-24T04:55:19.198Z,14.90
2024-01-24T04:57:45.858Z,15.57
2024-01-24T05:00:13.568Z,12.43
2024-01-24T05:02:40.633Z,9.05
2024-01-24T05:05:08.258Z,18.52
2024-01-24T05:07:36.108Z,12.60
2024-01-24T05:10:04.879Z,10.40
2024-01-24T05:12:32.800Z,15.17
2024-01-24T05:14:59.490Z,12.02
2024-01-24T05:17:26.038Z,15.18
2024-01-24T05:19:52.601Z,18.77
2024-01-24T05:22:19.315Z,16.77
2024-01-24T05:24:47.106Z,16.77
2024-01-24T05:27:14.188Z,19.02
2024-01-24T05:29:40.845Z,14.88
2024-01-24T05:32:07.968Z,16.65
2024-01-24T05:34:35.513Z,15.15
2024-01-24T05:37:02.265Z,13.20
2024-01-24T05:39:28.811Z,16.77
2024-01-24T05:41:55.491Z,17.10
2024-01-24T05:44:22.410Z,16.98
2024-01-24T05:46:49.049Z,16.23
2024-01-24T05:49:15.761Z,18.33
2024-01-24T05:51:43.722Z,17.13
2024-01-24T05:54:10.805Z,14.25
2024-01-24T05:56:37.433Z,19.00
2024-01-24T05:59:04.050Z,15.20
2024-01-24T06:01:30.778Z,18.27
2024-01-24T06:03:57.552Z,18.55
2024-01-24T06:06:24.485Z,17.65
2024-01-24T06:08:51.144Z,15.68
2024-01-24T06:11:18.816Z,20.98
2024-01-24T06:13:45.501Z,17.03
2024-01-24T06:16:12.062Z,21.27
2024-01-24T06:18:38.781Z,21.73
2024-01-24T06:21:05.592Z,29.58
2024-01-24T06:23:32.176Z,22.08
2024-01-24T06:25:58.826Z,14.57
2024-01-24T06:28:25.423Z,14.65
2024-01-24T06:30:53.017Z,22.00
2024-01-24T06:33:20.126Z,20.55
2024-01-24T06:35:46.719Z,21.17
2024-01-24T06:38:14.068Z,16.77
2024-01-24T06:40:40.706Z,23.60
2024-01-24T06:43:07.477Z,17.80
2024-01-24T06:45:34.079Z,17.50
2024-01-24T06:48:00.801Z,21.13
2024-01-24T06:50:27.336Z,19.97
2024-01-24T06:52:55.090Z,15.00
2024-01-24T06:55:22.176Z,18.75
2024-01-24T06:57:48.893Z,21.27
2024-01-24T07:00:16.087Z,23.35
2024-01-24T07:02:42.653Z,18.83
2024-01-24T07:05:09.549Z,22.75
2024-01-24T07:07:38.706Z,23.80
2024-01-24T07:10:05.999Z,25.10
2024-01-24T07:12:32.724Z,29.17
2024-01-24T07:14:59.265Z,21.57
2024-01-24T07:17:25.981Z,27.20
2024-01-24T07:19:52.830Z,18.85
2024-01-24T07:22:19.478Z,18.02
2024-01-24T07:24:46.234Z,18.20
2024-01-24T07:27:12.887Z,16.13
2024-01-24T07:29:39.858Z,20.27
2024-01-24T07:32:07.021Z,20.10
2024-01-24T07:34:33.805Z,19.23
2024-01-24T07:37:00.861Z,18.58
2024-01-24T07:39:29.601Z,22.00
2024-01-24T07:41:57.292Z,17.80
2024-01-24T07:44:24.282Z,20.13
2024-01-24T07:46:50.864Z,21.98
2024-01-24T07:49:18.722Z,18.17
2024-01-24T07:51:47.924Z,24.13
2024-01-24T07:54:15.062Z,24.80
2024-01-24T07:56:41.848Z,25.30
2024-01-24T07:59:09.432Z,25.55
2024-01-24T08:01:37.293Z,21.27
2024-01-24T08:04:04.644Z,21.27
2024-01-24T08:06:31.461Z,25.80
2024-01-24T08:08:58.201Z,16.77
2024-01-24T08:11:26.105Z,22.17
2024-01-24T08:13:52.955Z,16.23
2024-01-24T08:16:20.171Z,20.80
2024-01-24T08:18:47.018Z,20.38
2024-01-24T08:21:14.241Z,25.67
2024-01-24T08:23:47.064Z,18.25
2024-01-24T08:26:18.051Z,16.50
2024-01-24T08:28:44.794Z,17.97
2024-01-24T08:31:12.392Z,20.67
2024-01-24T08:33:39.103Z,15.57
2024-01-24T08:36:06.433Z,20.77
2024-01-24T08:38:32.976Z,19.17
2024-01-24T08:40:59.614Z,19.97
2024-01-24T08:43:26.112Z,18.08
2024-01-24T08:45:52.814Z,15.20
2024-01-24T08:48:19.945Z,22.13
2024-01-24T08:50:46.641Z,18.45
2024-01-24T08:53:13.702Z,17.20
2024-01-24T08:55:40.456Z,19.02
2024-01-24T08:58:07.269Z,20.67
2024-01-24T09:00:34.116Z,22.45
2024-01-24T09:03:00.830Z,19.58
2024-01-24T09:05:27.715Z,30.67
2024-01-24T09:07:54.300Z,27.42
2024-01-24T09:10:21.449Z,18.42
2024-01-24T09:12:48.250Z,23.00
2024-01-24T09:15:15.222Z,23.83
2024-01-24T09:17:41.922Z,20.40
2024-01-24T09:20:09.376Z,16.80
2024-01-24T09:22:36.283Z,18.08
2024-01-24T09:25:06.595Z,19.10
2024-01-24T09:27:35.274Z,16.42
2024-01-24T09:30:01.899Z,22.93
2024-01-24T09:32:28.590Z,16.65
2024-01-24T09:34:55.849Z,20.27
2024-01-24T09:37:22.687Z,18.13
2024-01-24T09:39:51.229Z,23.13
2024-01-24T09:42:23.804Z,24.07
2024-01-24T09:44:51.665Z,20.35
2024-01-24T09:47:20.901Z,18.48
2024-01-24T09:49:47.777Z,18.85
2024-01-24T09:52:18.096Z,26.52
2024-01-24T09:54:46.600Z,23.10
2024-01-24T09:57:14.181Z,17.15
2024-01-24T09:59:40.877Z,19.27
2024-01-24T10:02:07.556Z,23.02
2024-01-24T10:04:38.854Z,20.40
2024-01-24T10:07:08.861Z,20.97
2024-01-24T10:09:35.604Z,18.80
2024-01-24T10:12:02.437Z,17.35
2024-01-24T10:14:31.901Z,20.70
2024-01-24T10:16:58.917Z,22.15
2024-01-24T10:19:26.411Z,19.43
2024-01-24T10:21:53.766Z,17.75
2024-01-24T10:24:20.667Z,21.55
2024-01-24T10:26:47.899Z,14.15
2024-01-24T10:29:15.370Z,14.57
2024-01-24T10:31:43.934Z,15.13
2024-01-24T10:34:12.144Z,14.77
2024-01-24T10:36:43.500Z,19.27
2024-01-24T10:39:14.984Z,16.52
2024-01-24T10:41:44.165Z,20.15
2024-01-24T10:44:15.565Z,17.07
2024-01-24T10:46:42.422Z,18.60
2024-01-24T10:49:13.372Z,19.33
2024-01-24T10:51:41.007Z,20.10
2024-01-24T17:19:26.000Z,12.20
2024-01-24T17:21:52.820Z,17.52
2024-01-24T17:24:19.706Z,11.43
2024-01-24T17:26:46.228Z,21.37
2024-01-24T17:29:12.768Z,15.65
2024-01-24T17:31:39.761Z,12.20
2024-01-24T17:34:06.419Z,9.15
2024-01-24T17:36:33.170Z,15.85
2024-01-24T17:38:59.672Z,13.43
2024-01-24T17:41:26.465Z,11.40
2024-01-24T17:43:53.026Z,14.02
2024-01-24T17:46:19.596Z,13.52
2024-01-24T17:48:46.684Z,13.05
2024-01-24T17:51:14.952Z,14.60
2024-01-24T17:53:41.489Z,12.57
2024-01-24T17:56:08.050Z,18.67
2024-01-24T17:58:36.042Z,12.48
2024-01-24T18:01:04.360Z,12.32
2024-01-24T18:03:31.217Z,15.77
2024-01-24T18:05:57.828Z,12.70
2024-01-24T18:08:24.566Z,13.48
2024-01-24T18:10:51.163Z,12.15
2024-01-24T18:13:17.684Z,12.45
2024-01-24T18:15:44.318Z,14.67
2024-01-24T18:18:11.229Z,14.48
2024-01-24T18:20:37.835Z,18.65
2024-01-24T18:23:04.698Z,14.38
2024-01-24T18:25:31.449Z,16.35
2024-01-24T18:27:57.944Z,10.67
2024-01-24T18:30:24.714Z,14.25
2024-01-24T18:32:51.485Z,12.30
2024-01-24T18:35:18.361Z,14.40
2024-01-24T18:37:44.993Z,12.43
2024-01-24T18:40:12.262Z,14.80
2024-01-24T18:42:41.666Z,10.07
2024-01-24T18:45:11.192Z,12.40
2024-01-24T18:47:37.888Z,11.30
2024-01-24T18:50:05.366Z,16.85
2024-01-24T18:52:31.870Z,13.20
2024-01-24T18:54:58.815Z,14.95
2024-01-24T18:57:28.342Z,12.70
2024-01-24T18:59:54.927Z,14.57
2024-01-24T19:02:21.746Z,12.07
2024-01-24T19:04:48.756Z,17.00
2024-01-24T19:07:15.710Z,14.88
2024-01-24T19:09:43.484Z,15.82
2024-01-24T19:12:11.049Z,11.23
2024-01-24T19:14:41.162Z,14.45
2024-01-24T19:17:07.848Z,11.37
2024-01-24T19:19:34.742Z,12.80
2024-01-24T19:22:01.770Z,16.13
2024-01-24T19:24:28.306Z,12.90
2024-01-24T19:26:54.960Z,18.17
2024-01-24T19:29:21.683Z,9.53
2024-01-24T19:31:50.428Z,14.63
2024-01-24T19:34:20.233Z,14.40
2024-01-24T19:36:46.844Z,16.77
2024-01-24T19:39:14.973Z,11.85
2024-01-24T19:41:41.610Z,12.83
2024-01-24T19:44:08.351Z,16.83
2024-01-24T19:46:34.989Z,22.35
2024-01-24T19:49:01.684Z,17.65
2024-01-24T19:51:29.044Z,13.43
2024-01-24T19:53:56.343Z,15.17
2024-01-24T19:56:22.907Z,13.18
2024-01-24T19:58:49.632Z,12.45
2024-01-24T20:01:16.318Z,15.45
2024-01-24T20:03:42.937Z,9.77
2024-01-24T20:06:09.487Z,9.87
2024-01-24T20:08:36.133Z,17.60
2024-01-24T20:11:02.740Z,14.70
2024-01-24T20:13:31.678Z,11.95
2024-01-24T20:15:59.170Z,16.33
2024-01-24T20:18:26.139Z,11.70
2024-01-24T20:20:52.952Z,11.75
2024-01-24T20:23:19.508Z,14.70
2024-01-24T20:25:46.059Z,12.93
2024-01-24T20:28:12.686Z,10.27
2024-01-24T20:30:40.853Z,18.03
2024-01-24T20:33:07.505Z,19.52
2024-01-24T20:35:34.068Z,18.80
2024-01-24T20:38:01.320Z,13.90
2024-01-24T20:40:27.827Z,13.23
2024-01-24T20:42:54.644Z,11.70
2024-01-24T20:45:21.208Z,15.35
2024-01-24T20:47:49.101Z,13.80
2024-01-24T20:50:19.493Z,13.95
2024-01-24T20:52:46.203Z,12.90
2024-01-24T20:55:12.807Z,12.03
2024-01-24T20:57:39.449Z,14.55
2024-01-24T21:00:09.854Z,16.63
2024-01-24T21:02:36.678Z,13.20
2024-01-24T21:05:03.747Z,21.30
2024-01-24T21:07:30.607Z,12.40
2024-01-24T21:09:57.837Z,12.65
2024-01-24T21:12:24.369Z,10.77
2024-01-24T21:14:51.175Z,11.00
2024-01-24T21:17:18.361Z,9.43
2024-01-24T21:19:45.020Z,13.53
2024-01-24T21:22:11.753Z,11.77
2024-01-24T21:24:38.476Z,11.05
2024-01-24T21:27:05.361Z,11.05
2024-01-24T21:29:31.986Z,17.33
2024-01-24T21:31:59.558Z,13.80
2024-01-24T21:34:26.372Z,9.70
2024-01-24T21:36:53.394Z,9.88
2024-01-24T21:39:21.038Z,14.32
2024-01-24T21:41:47.590Z,19.35
2024-01-24T21:44:14.107Z,14.47
2024-01-24T21:46:40.996Z,10.18
2024-01-24T21:49:08.496Z,10.52
2024-01-24T21:51:35.049Z,12.18
2024-01-24T21:54:01.655Z,12.88
2024-01-24T21:56:28.154Z,17.27
2024-01-24T21:58:56.302Z,17.88
2024-01-24T22:01:24.372Z,10.90
2024-01-24T22:03:51.993Z,14.80
2024-01-24T22:06:18.787Z,11.05
2024-01-24T22:08:46.013Z,10.97
2024-01-24T22:11:14.893Z,13.77
2024-01-24T22:13:41.521Z,12.63
2024-01-24T22:16:08.309Z,16.85
2024-01-24T22:18:40.936Z,17.90
2024-01-24T22:21:14.118Z,11.63
2024-01-24T22:23:40.768Z,15.60
2024-01-24T22:26:07.461Z,11.18
2024-01-24T22:28:33.972Z,10.73
2024-01-24T22:31:00.528Z,12.80
2024-01-24T22:33:27.284Z,10.00
2024-01-24T22:35:54.171Z,11.82
2024-01-24T22:38:20.827Z,9.70
2024-01-24T22:40:47.374Z,11.93
2024-01-24T22:43:14.011Z,13.15
2024-01-24T22:45:40.735Z,14.93
2024-01-24T22:48:07.909Z,14.88
2024-01-24T22:50:34.555Z,14.27
2024-01-24T22:53:01.211Z,12.45
2024-01-24T22:55:27.983Z,16.17
2024-01-24T22:57:54.717Z,11.60
2024-01-24T23:00:22.835Z,14.38
2024-01-24T23:02:49.502Z,18.15
2024-01-24T23:05:17.130Z,11.57
2024-01-24T23:07:44.113Z,18.13
2024-01-24T23:10:11.445Z,12.83
2024-01-24T23:12:38.723Z,22.20
2024-01-24T23:15:06.401Z,16.25
2024-01-24T23:17:33.345Z,14.23
2024-01-24T23:20:00.032Z,11.55
2024-01-24T23:22:27.810Z,11.07
2024-01-24T23:24:54.608Z,14.90
2024-01-24T23:27:21.195Z,18.13
2024-01-24T23:29:47.721Z,15.48
2024-01-24T23:32:14.370Z,15.18
2024-01-24T23:34:41.009Z,12.10
2024-01-24T23:37:07.656Z,9.68
2024-01-24T23:39:34.290Z,13.10
2024-01-24T23:42:00.995Z,14.55
2024-01-24T23:44:27.466Z,12.27
2024-01-24T23:46:53.991Z,12.40
2024-01-24T23:49:20.704Z,15.50
2024-01-24T23:51:47.566Z,14.93
2024-01-24T23:54:14.299Z,13.35
2024-01-24T23:56:41.223Z,19.83
2024-01-24T23:59:09.081Z,9.13
